createdAt,value
2023-01-08T04:04:43.121Z,100.00
2023-01-08T04:07:56.392Z,100.00
2023-01-08T04:11:06.303Z,100.00
2023-01-08T04:14:16.145Z,100.00
2023-01-08T04:17:25.943Z,100.00
2023-01-08T04:20:37.073Z,100.00
2023-01-08T04:23:46.852Z,100.00
2023-01-08T04:26:56.710Z,100.00
2023-01-08T04:30:07.179Z,100.00
2023-01-08T04:33:16.995Z,100.00
2023-01-08T04:36:27.979Z,100.00
2023-01-08T04:39:37.716Z,100.00
2023-01-08T04:42:47.583Z,100.00
2023-01-08T04:45:59.543Z,100.00
2023-01-08T04:49:09.353Z,100.00
2023-01-08T04:52:20.407Z,100.00
2023-01-08T04:55:30.155Z,100.00
2023-01-08T04:58:40.705Z,100.00
2023-01-08T05:01:50.542Z,100.00
2023-01-08T05:05:00.453Z,100.00
2023-01-08T05:08:11.465Z,100.00
2023-01-08T05:11:21.339Z,100.00
2023-01-08T05:14:31.009Z,100.00
2023-01-08T05:17:40.755Z,100.00
2023-01-08T05:20:50.547Z,100.00
2023-01-08T05:24:01.504Z,100.00
2023-01-08T05:27:11.159Z,100.00
2023-01-08T05:30:21.117Z,100.00
2023-01-08T05:33:31.475Z,100.00
2023-01-08T05:36:41.515Z,100.00
2023-01-08T05:39:52.698Z,100.00
2023-01-08T05:43:05.287Z,100.00
2023-01-08T05:46:15.015Z,100.00
2023-01-08T05:49:24.937Z,100.00
2023-01-08T05:52:34.676Z,100.00
2023-01-08T05:55:45.718Z,100.00
2023-01-08T05:58:55.982Z,100.00
2023-01-08T08:40:43.015Z,100.00
2023-01-08T08:43:52.869Z,100.00
2023-01-08T08:47:02.702Z,100.00
2023-01-08T08:50:12.508Z,100.00
2023-01-08T08:53:22.230Z,100.00
2023-01-08T08:56:33.255Z,100.00
2023-01-08T08:59:43.535Z,100.00
2023-01-08T09:02:53.416Z,100.00
2023-01-08T09:06:03.502Z,100.00
2023-01-08T09:09:14.903Z,100.00
2023-01-08T09:12:26.041Z,100.00
2023-01-08T09:15:36.929Z,100.00
2023-01-08T09:18:46.974Z,100.00
2023-01-08T09:21:56.739Z,100.00
2023-01-08T09:25:06.962Z,100.00
2023-01-08T09:28:17.986Z,100.00
2023-01-08T09:31:28.675Z,100.00
2023-01-08T09:34:38.499Z,100.00
2023-01-08T09:37:51.761Z,100.00
2023-01-08T09:41:05.920Z,100.00
2023-01-08T09:44:21.445Z,100.00
2023-01-08T09:47:37.260Z,100.00
2023-01-08T09:50:48.516Z,100.00
2023-01-08T09:53:58.816Z,100.00
2023-01-08T09:57:13.530Z,100.00
2023-01-08T10:00:28.971Z,100.00
2023-01-08T10:03:42.632Z,100.00
2023-01-08T10:06:55.922Z,100.00
2023-01-08T10:10:06.176Z,100.00
2023-01-08T10:13:17.022Z,100.00
2023-01-08T10:16:32.096Z,100.00
2023-01-08T10:19:41.918Z,100.00
2023-01-08T10:22:54.940Z,100.00
2023-01-08T10:26:05.022Z,100.00
2023-01-08T10:29:16.944Z,100.00
2023-01-08T10:32:31.186Z,100.00
2023-01-08T10:35:42.880Z,100.00
2023-01-08T10:38:57.270Z,100.00
2023-01-08T10:42:08.030Z,100.00
2023-01-08T10:45:22.073Z,100.00
2023-01-08T10:48:37.468Z,100.00
2023-01-08T10:51:52.792Z,100.00
2023-01-08T10:55:13.266Z,100.00
2023-01-08T10:58:23.020Z,100.00
2023-01-08T11:01:33.834Z,100.00
2023-01-08T11:04:50.687Z,100.00
2023-01-08T11:08:01.881Z,100.00
2023-01-08T11:11:12.084Z,100.00
2023-01-08T11:14:25.749Z,99.77
2023-01-08T11:17:35.863Z,97.18
2023-01-08T11:20:48.047Z,96.84
2023-01-08T11:24:05.302Z,96.58
2023-01-08T11:27:17.977Z,98.86
2023-01-08T11:30:32.389Z,99.94
2023-01-08T11:33:45.239Z,100.00
2023-01-08T11:37:03.815Z,98.59
2023-01-08T11:40:17.589Z,98.98
2023-01-08T11:43:38.262Z,100.00
2023-01-08T11:46:58.519Z,98.85
2023-01-08T11:50:18.472Z,96.87
2023-01-08T11:53:36.479Z,97.81
2023-01-08T11:57:02.624Z,95.50
2023-01-08T12:00:31.218Z,96.65
2023-01-08T12:03:46.068Z,96.37
2023-01-08T12:07:07.336Z,97.34
2023-01-08T12:10:27.648Z,98.09
2023-01-08T12:13:49.860Z,98.41
2023-01-08T12:17:12.350Z,98.50
2023-01-08T12:20:33.188Z,97.35
2023-01-08T12:24:00.971Z,97.34
2023-01-08T12:27:34.604Z,97.77
2023-01-08T12:31:16.926Z,96.51
2023-01-08T12:34:38.554Z,97.28
2023-01-08T12:37:55.741Z,97.43
2023-01-08T12:41:09.797Z,97.13
2023-01-08T12:44:26.910Z,96.75
2023-01-08T12:47:39.093Z,96.38
2023-01-08T12:50:58.406Z,93.99
2023-01-08T12:54:17.442Z,91.71
2023-01-08T12:57:32.846Z,90.22
2023-01-08T13:00:53.515Z,91.19
2023-01-08T13:04:06.106Z,91.62
2023-01-08T13:07:20.672Z,92.53
2023-01-08T13:10:37.000Z,94.70
2023-01-08T13:13:46.774Z,95.40
2023-01-08T13:17:06.024Z,95.50
2023-01-08T13:20:22.770Z,95.77
2023-01-08T13:23:35.564Z,97.10
2023-01-08T13:26:45.415Z,95.85
2023-01-08T13:29:57.859Z,95.34
2023-01-08T13:33:28.794Z,94.43
2023-01-08T13:36:38.887Z,96.29
2023-01-08T13:39:48.885Z,94.77
2023-01-08T13:43:00.623Z,94.25
2023-01-08T13:46:17.461Z,92.38
2023-01-08T13:49:34.919Z,93.06
2023-01-08T13:52:46.793Z,92.04
2023-01-08T13:55:59.561Z,93.81
2023-01-08T13:59:21.456Z,92.53
2023-01-08T14:02:42.426Z,91.84
2023-01-08T14:05:54.035Z,92.10
2023-01-08T14:09:05.717Z,92.97
2023-01-08T14:12:20.469Z,93.65
2023-01-08T14:15:30.456Z,93.96
2023-01-08T14:18:44.028Z,93.52
2023-01-08T14:21:59.205Z,94.31
2023-01-08T14:25:11.275Z,96.51
2023-01-08T14:28:24.060Z,97.67
2023-01-08T14:31:33.864Z,98.04
2023-01-08T14:34:45.208Z,99.04
2023-01-08T14:37:56.626Z,99.19
2023-01-08T14:41:09.079Z,98.17
2023-01-08T14:44:25.974Z,98.29
2023-01-08T14:47:44.938Z,97.21
2023-01-08T14:51:02.736Z,97.61
2023-01-08T14:54:23.389Z,97.43
2023-01-08T14:57:33.165Z,96.93
2023-01-08T15:00:43.734Z,97.31
2023-01-08T15:04:05.864Z,97.83
2023-01-08T15:07:23.163Z,96.94
2023-01-08T15:10:38.715Z,97.56
2023-01-08T15:13:50.473Z,98.73
2023-01-08T15:17:06.286Z,98.81
2023-01-08T15:20:18.453Z,97.72
2023-01-08T15:23:34.547Z,97.86
2023-01-08T15:26:45.579Z,97.18
2023-01-08T15:30:00.237Z,97.21
2023-01-08T15:33:18.729Z,97.71
2023-01-08T15:36:29.014Z,98.13
2023-01-08T15:39:38.940Z,98.10
2023-01-08T15:43:00.989Z,97.34
2023-01-08T15:46:12.685Z,97.86
2023-01-08T15:49:22.491Z,99.01
2023-01-08T15:52:33.103Z,99.56
2023-01-08T15:55:45.207Z,100.00
2023-01-08T15:58:56.354Z,98.91
2023-01-08T16:02:06.215Z,99.78
2023-01-08T16:05:17.534Z,99.11
2023-01-08T16:08:27.416Z,99.63
2023-01-08T16:11:37.159Z,100.00
2023-01-08T16:14:48.113Z,100.00
2023-01-08T16:17:59.451Z,100.00
2023-01-08T16:21:10.973Z,100.00
2023-01-08T16:24:20.688Z,100.00
2023-01-08T16:27:31.727Z,100.00
2023-01-08T16:30:43.948Z,100.00
2023-01-08T16:33:53.739Z,100.00
2023-01-08T16:37:03.442Z,100.00
2023-01-08T16:40:13.741Z,100.00
2023-01-08T16:43:23.622Z,100.00
2023-01-08T16:46:34.710Z,100.00
2023-01-08T16:49:44.437Z,100.00
2023-01-08T16:52:54.232Z,100.00
2023-01-08T16:56:07.528Z,100.00
2023-01-08T16:59:23.285Z,100.00
2023-01-08T17:02:35.052Z,100.00
2023-01-08T17:05:44.800Z,100.00
2023-01-08T17:08:54.610Z,100.00
2023-01-08T17:12:04.520Z,100.00
2023-01-08T17:15:15.080Z,100.00
2023-01-08T17:18:26.095Z,100.00
2023-01-08T17:21:36.432Z,100.00
2023-01-08T17:24:46.192Z,100.00
2023-01-08T17:27:55.994Z,100.00
2023-01-08T17:31:07.285Z,100.00
2023-01-08T17:34:18.453Z,100.00
2023-01-08T17:37:30.042Z,100.00
2023-01-08T17:40:39.824Z,100.00
2023-01-08T17:43:49.680Z,100.00
2023-01-08T17:46:59.430Z,100.00
2023-01-08T17:50:11.839Z,100.00
2023-01-08T17:53:21.793Z,100.00
2023-01-08T17:56:31.603Z,100.00
2023-01-08T17:59:41.481Z,100.00
2023-01-08T18:02:51.280Z,100.00
2023-01-08T18:06:07.942Z,100.00
2023-01-08T18:09:17.619Z,100.00
2023-01-08T18:12:27.348Z,100.00
2023-01-08T18:15:37.039Z,100.00
2023-01-08T18:18:46.804Z,100.00
2023-01-08T18:21:58.021Z,100.00
2023-01-08T18:25:08.048Z,100.00
2023-01-08T18:28:17.821Z,100.00
2023-01-08T18:31:27.531Z,100.00
2023-01-08T18:34:38.744Z,100.00
2023-01-08T18:37:49.735Z,100.00
2023-01-08T18:41:00.180Z,100.00
2023-01-08T18:44:10.676Z,100.00
2023-01-08T18:47:20.615Z,100.00
2023-01-08T18:50:30.488Z,100.00
2023-01-08T18:53:41.582Z,100.00
2023-01-08T18:56:52.152Z,100.00
2023-01-08T19:00:03.460Z,100.00
2023-01-08T19:03:13.176Z,100.00
2023-01-08T19:06:23.020Z,100.00
2023-01-08T19:09:34.209Z,100.00
2023-01-08T19:12:44.097Z,100.00
2023-01-08T19:15:53.855Z,100.00
2023-01-08T19:19:03.633Z,100.00
2023-01-08T19:22:13.375Z,100.00
2023-01-08T19:25:24.436Z,100.00
2023-01-08T19:28:34.221Z,100.00
2023-01-08T19:31:44.065Z,100.00
2023-01-08T19:34:54.417Z,100.00
2023-01-08T19:38:04.249Z,100.00
2023-01-08T19:41:26.283Z,100.00
2023-01-08T19:44:36.038Z,100.00
2023-01-08T19:47:46.193Z,100.00
2023-01-08T19:50:55.886Z,100.00
2023-01-08T19:54:05.870Z,100.00
2023-01-08T19:57:16.879Z,100.00
2023-01-08T20:00:26.712Z,100.00
2023-01-08T20:03:36.451Z,100.00
2023-01-08T20:06:46.146Z,100.00
2023-01-08T20:09:56.060Z,100.00
2023-01-08T20:13:07.070Z,100.00
2023-01-08T20:16:19.142Z,100.00
2023-01-08T20:19:30.597Z,100.00
2023-01-08T20:22:40.361Z,100.00
2023-01-08T20:25:50.259Z,100.00
2023-01-08T20:29:01.471Z,100.00
2023-01-08T20:32:11.230Z,100.00
2023-01-08T20:35:21.055Z,100.00
2023-01-08T20:38:30.793Z,100.00
2023-01-08T20:41:46.527Z,100.00
2023-01-08T20:45:08.599Z,100.00
2023-01-08T20:48:18.381Z,100.00
2023-01-08T20:51:28.133Z,100.00
2023-01-08T20:54:37.950Z,100.00
2023-01-08T20:57:47.672Z,100.00
2023-01-08T21:01:05.579Z,100.00
2023-01-08T21:04:15.500Z,100.00
2023-01-08T21:07:29.458Z,100.00
2023-01-08T21:10:39.138Z,100.00
2023-01-08T21:13:48.891Z,100.00
2023-01-08T21:16:59.955Z,100.00
